createdAt,value
2019-05-19T19:27:07.679Z,24.50
2019-05-19T19:29:11.982Z,22.50
2019-05-19T19:31:16.241Z,22.40
2019-05-19T19:33:20.550Z,22.20
2019-05-19T19:35:25.272Z,22.30
2019-05-19T19:37:29.806Z,22.30
2019-05-19T19:39:34.160Z,22.20
2019-05-19T19:41:38.410Z,22.20
2019-05-19T19:43:42.637Z,22.20
2019-05-19T19:45:46.923Z,22.10
2019-05-19T19:47:51.196Z,22.10
2019-05-19T19:49:55.480Z,22.00
2019-05-19T19:51:59.775Z,22.00
2019-05-19T19:54:03.994Z,22.00
2019-05-19T19:56:08.237Z,22.00
2019-05-19T19:58:12.488Z,22.00
2019-05-19T20:00:42.540Z,21.90
2019-05-19T20:02:46.767Z,21.90
2019-05-19T20:04:51.057Z,21.90
2019-05-19T20:06:55.252Z,21.80
2019-05-19T20:08:59.480Z,21.80
2019-05-19T20:11:03.662Z,21.80
2019-05-19T20:13:07.882Z,21.70
2019-05-19T20:15:16.040Z,21.60
2019-05-19T20:17:20.297Z,21.60
2019-05-19T20:19:24.750Z,21.60
2019-05-19T20:21:29.054Z,21.70
2019-05-19T20:23:33.265Z,21.80
2019-05-19T20:25:37.643Z,21.80
2019-05-19T20:27:42.305Z,21.70
2019-05-19T20:29:46.509Z,21.70
2019-05-19T20:31:50.687Z,21.70
2019-05-19T20:33:54.881Z,21.70
2019-05-19T20:36:00.671Z,21.60
2019-05-19T20:38:04.851Z,21.60
2019-05-19T20:40:10.768Z,21.60
2019-05-19T20:42:14.959Z,21.60
2019-05-19T20:44:19.238Z,21.60
2019-05-19T20:46:23.526Z,21.60
2019-05-19T20:48:27.715Z,21.50
2019-05-19T20:50:31.981Z,21.50
2019-05-19T20:52:36.263Z,21.50
2019-05-19T20:54:40.437Z,21.50
2019-05-19T20:56:44.642Z,21.50
2019-05-19T20:58:48.888Z,21.50
2019-05-19T21:00:53.098Z,21.50
2019-05-19T21:02:57.335Z,21.50
2019-05-19T21:05:01.519Z,21.40
2019-05-19T21:07:07.802Z,21.40
2019-05-19T21:09:11.795Z,21.40
2019-05-19T21:11:16.035Z,21.40
2019-05-19T21:13:20.269Z,21.40
2019-05-19T21:15:24.521Z,21.40
2019-05-19T21:17:28.721Z,21.40
2019-05-19T21:19:32.904Z,21.40
2019-05-19T21:21:37.064Z,21.40
2019-05-19T21:23:41.295Z,21.40
2019-05-19T21:25:45.523Z,21.30
2019-05-19T21:27:49.709Z,21.30
2019-05-19T21:29:53.907Z,21.30
2019-05-19T21:31:58.158Z,21.30
2019-05-19T21:34:02.371Z,21.30
2019-05-19T21:36:06.562Z,21.30
2019-05-19T21:38:10.962Z,21.30
2019-05-19T21:40:15.262Z,21.30
2019-05-19T21:42:19.437Z,21.30
2019-05-19T21:44:23.616Z,21.30
2019-05-19T21:46:27.881Z,21.20
2019-05-19T21:48:33.630Z,21.20
2019-05-19T21:50:37.820Z,21.20
2019-05-19T21:52:41.987Z,21.20
2019-05-19T21:54:46.262Z,21.20
2019-05-19T21:56:50.449Z,21.20
2019-05-19T21:58:54.632Z,21.10
2019-05-19T22:00:58.791Z,21.20
2019-05-19T22:03:03.061Z,21.10
2019-05-19T22:05:07.350Z,21.10
2019-05-19T22:07:21.236Z,21.10
2019-05-19T22:09:25.412Z,21.10
2019-05-19T22:11:29.575Z,21.20
2019-05-19T22:13:33.756Z,21.10
2019-05-19T22:15:38.406Z,21.10
2019-05-19T22:17:42.680Z,21.10
2019-05-19T22:19:46.929Z,21.00
2019-05-19T22:21:51.154Z,21.00
2019-05-19T22:23:55.662Z,21.00
2019-05-19T22:25:59.851Z,20.90
2019-05-19T22:28:04.111Z,20.90
2019-05-19T22:30:08.411Z,20.90
2019-05-19T22:32:12.677Z,20.80
2019-05-19T22:34:16.947Z,20.70
2019-05-19T22:36:21.130Z,20.70
2019-05-19T22:38:25.330Z,20.70
2019-05-19T22:40:29.597Z,20.60
2019-05-19T22:42:33.836Z,20.60
2019-05-19T22:44:38.028Z,20.60
2019-05-19T22:46:42.211Z,20.60
2019-05-19T22:48:47.515Z,20.60
2019-05-19T22:50:51.681Z,20.60
2019-05-19T22:52:55.832Z,20.50
2019-05-19T22:55:00.043Z,20.50
2019-05-19T22:57:04.181Z,20.40
2019-05-19T22:59:19.330Z,20.40
2019-05-19T23:01:14.469Z,20.30
2019-05-19T23:03:18.634Z,20.20
2019-05-19T23:05:22.848Z,20.20
2019-05-19T23:07:27.022Z,20.20
2019-05-19T23:09:31.234Z,20.10
2019-05-19T23:11:35.565Z,20.00
2019-05-19T23:13:39.707Z,19.90
2019-05-19T23:15:43.925Z,19.80
2019-05-19T23:17:48.163Z,19.80
2019-05-19T23:19:52.386Z,19.80
2019-05-19T23:21:56.705Z,19.60
2019-05-19T23:24:00.919Z,19.60
2019-05-19T23:26:05.336Z,19.50
2019-05-19T23:28:09.518Z,19.50
2019-05-19T23:30:13.808Z,19.50
2019-05-19T23:32:18.072Z,19.30
2019-05-19T23:34:22.283Z,19.30
2019-05-19T23:36:26.437Z,19.30
2019-05-19T23:38:30.712Z,19.20
2019-05-19T23:40:34.863Z,19.10
2019-05-19T23:42:39.082Z,19.10
2019-05-19T23:44:43.317Z,19.00
2019-05-19T23:46:47.608Z,19.00
2019-05-19T23:48:51.800Z,18.90
2019-05-19T23:50:55.969Z,18.90
2019-05-19T23:53:00.169Z,18.90
2019-05-19T23:55:04.980Z,18.80
2019-05-19T23:57:09.152Z,18.80
2019-05-19T23:59:13.341Z,18.80
